Terminal Aerodrome Forecast
Issued by NWS

Home | Current Version | Previous Version | Text Only | Print | Product List | Glossary On
Versions: 1 2 3 4 5 6 7 8 9 10 11 12 13 14 15 16 17
000
FTUS43 KBIS 181200 AAA
TAFDIK
TAF AMD
KDIK 181247Z 1813/1912 17007KT P6SM SCT005 OVC012
      TEMPO 1813/1815 5SM -SN BR OVC005
     FM181500 20007KT P6SM OVC007
     FM182200 22008KT P6SM OVC012
     FM190300 22008KT P6SM SCT035 BKN050=

USA.gov is the U.S. government's official web portal to all federal, state and local government web resources and services.